Time;durP1;ratioP1;P1;durP2;ratioP2;P2;SDS_P1;SDS_P2;PMS_P1;PMS_P2;Temp;Humidity;BMP_temperature;BMP_pressure;BME280_temperature;BME280_humidity;BME280_pressure;Samples;Min_cycle;Max_cycle;Signal;HPM_P1;HPM_P2
2022/11/01 00:01:40;;;;;;;13.30;9.03;;;11.60;99.90;;;;;;4842250;29;20188;-86
2022/11/01 00:04:07;;;;;;;13.80;9.57;;;11.60;99.90;;;;;;4843479;29;20273;-86
2022/11/01 00:06:34;;;;;;;13.67;9.33;;;11.60;99.90;;;;;;4860849;29;20188;-86
2022/11/01 00:09:00;;;;;;;12.77;9.67;;;11.60;99.90;;;;;;4860827;29;20269;-86
2022/11/01 00:11:26;;;;;;;11.27;8.57;;;11.60;99.90;;;;;;4860621;29;20182;-86
2022/11/01 00:13:52;;;;;;;13.17;10.17;;;11.60;99.90;;;;;;4860258;29;20206;-87
2022/11/01 00:16:19;;;;;;;18.00;11.90;;;11.60;99.90;;;;;;4860823;29;20179;-86
2022/11/01 00:18:46;;;;;;;15.83;10.13;;;11.60;99.90;;;;;;4875768;29;20206;-86
2022/11/01 00:21:13;;;;;;;14.37;10.57;;;11.60;99.90;;;;;;4860866;29;20184;-86
2022/11/01 00:23:39;;;;;;;16.87;11.17;;;11.50;99.90;;;;;;4860412;29;20208;-87
2022/11/01 00:26:06;;;;;;;15.03;10.90;;;11.50;99.90;;;;;;4860716;29;20192;-86
2022/11/01 00:28:33;;;;;;;16.87;10.60;;;11.50;99.90;;;;;;4860296;29;20179;-86
2022/11/01 00:30:59;;;;;;;19.73;11.13;;;11.50;99.90;;;;;;4860464;29;20558;-86
2022/11/01 00:33:25;;;;;;;19.03;11.50;;;11.50;99.90;;;;;;4859453;29;20233;-86
2022/11/01 00:35:51;;;;;;;14.00;10.37;;;11.40;99.90;;;;;;4844850;29;20189;-86
2022/11/01 00:38:18;;;;;;;19.60;11.07;;;11.40;99.90;;;;;;4875590;29;20190;-86
2022/11/01 00:40:44;;;;;;;13.03;10.10;;;11.30;99.90;;;;;;4845037;29;20652;-86
2022/11/01 00:43:11;;;;;;;12.83;10.27;;;11.20;99.90;;;;;;4875634;29;20243;-86
2022/11/01 00:45:37;;;;;;;12.70;10.30;;;11.10;99.90;;;;;;4845695;29;20655;-86
2022/11/01 00:48:03;;;;;;;15.33;11.53;;;11.10;99.90;;;;;;4846339;29;20203;-86
2022/11/01 00:50:29;;;;;;;15.83;10.70;;;11.00;99.90;;;;;;4844235;29;20228;-86
2022/11/01 00:52:55;;;;;;;15.60;10.90;;;11.00;99.90;;;;;;4844551;29;20244;-86
2022/11/01 00:55:21;;;;;;;14.37;10.20;;;11.00;99.90;;;;;;4844397;29;20199;-86
2022/11/01 00:57:47;;;;;;;17.30;10.37;;;11.00;99.90;;;;;;4875158;29;20280;-86
2022/11/01 01:00:15;;;;;;;15.77;10.47;;;11.00;99.90;;;;;;4859489;29;20190;-86
2022/11/01 01:02:41;;;;;;;15.23;10.33;;;11.10;99.90;;;;;;4844554;29;20171;-86
2022/11/01 01:05:07;;;;;;;13.80;9.90;;;11.10;99.90;;;;;;4875245;29;20196;-86
2022/11/01 01:07:34;;;;;;;13.87;10.20;;;11.00;99.90;;;;;;4859510;29;20189;-86
2022/11/01 01:10:00;;;;;;;12.80;10.57;;;11.00;99.90;;;;;;4860096;29;20180;-86
2022/11/01 01:12:26;;;;;;;13.27;10.43;;;11.00;99.90;;;;;;4859182;29;20243;-86
2022/11/01 01:14:51;;;;;;;12.50;10.37;;;11.10;99.90;;;;;;4844498;29;20227;-86
2022/11/01 01:17:17;;;;;;;16.63;10.03;;;11.10;99.90;;;;;;4859431;29;20656;-86
2022/11/01 01:19:43;;;;;;;13.47;9.70;;;11.10;99.90;;;;;;4844585;29;20178;-86
2022/11/01 01:22:09;;;;;;;12.50;9.33;;;11.10;99.90;;;;;;4859652;29;20194;-86
2022/11/01 01:24:35;;;;;;;15.90;9.87;;;11.10;99.90;;;;;;4859422;29;20219;-86
2022/11/01 01:27:02;;;;;;;14.70;9.80;;;11.10;99.90;;;;;;4860303;29;20186;-86
2022/11/01 01:29:28;;;;;;;13.77;10.13;;;11.10;99.90;;;;;;4859750;29;20231;-86
2022/11/01 01:31:54;;;;;;;14.23;10.07;;;11.10;99.90;;;;;;4844397;29;20298;-86
2022/11/01 01:34:20;;;;;;;14.73;9.73;;;11.10;99.90;;;;;;4843953;29;20295;-86
2022/11/01 01:36:46;;;;;;;13.87;9.90;;;11.10;99.90;;;;;;4874929;29;20194;-86
2022/11/01 01:39:13;;;;;;;16.90;10.33;;;11.00;99.90;;;;;;4859543;29;20200;-86
2022/11/01 01:41:56;;;;;;;15.47;9.90;;;11.00;99.90;;;;;;4844042;29;20192;-86
2022/11/01 01:44:50;;;;;;;13.93;9.47;;;11.00;99.90;;;;;;4859584;29;20220;-86
2022/11/01 01:47:26;;;;;;;14.40;10.50;;;11.00;99.90;;;;;;4859197;29;20186;-86
2022/11/01 01:50:04;;;;;;;13.20;10.17;;;11.00;99.90;;;;;;4875027;29;20166;-86
2022/11/01 01:52:37;;;;;;;16.30;10.27;;;11.00;99.90;;;;;;4843745;29;20213;-86
2022/11/01 01:55:06;;;;;;;14.97;9.60;;;11.00;99.90;;;;;;4844812;29;20241;-86
2022/11/01 01:57:34;;;;;;;13.43;10.37;;;11.00;99.90;;;;;;4859810;29;20708;-86
2022/11/01 02:00:05;;;;;;;12.33;8.80;;;11.00;99.90;;;;;;4844665;29;20186;-86
2022/11/01 02:02:37;;;;;;;14.87;10.03;;;11.10;99.90;;;;;;4863454;29;20192;-86
2022/11/01 02:05:37;;;;;;;15.00;10.27;;;11.10;99.90;;;;;;4840995;29;20196;-86
2022/11/01 02:08:05;;;;;;;12.47;9.93;;;11.10;99.90;;;;;;4860586;29;20197;-86
2022/11/01 02:10:31;;;;;;;15.23;9.97;;;11.10;99.90;;;;;;4842555;29;20289;-86
2022/11/01 02:12:57;;;;;;;18.33;10.97;;;11.10;99.90;;;;;;4874666;29;20224;-86
2022/11/01 02:15:36;;;;;;;14.23;12.30;;;11.00;99.90;;;;;;4862942;29;20214;-86
2022/11/01 02:18:13;;;;;;;17.07;11.20;;;11.00;99.90;;;;;;4847332;29;20221;-86
2022/11/01 02:20:45;;;;;;;16.57;10.77;;;11.00;99.90;;;;;;4862722;29;20196;-86
2022/11/01 02:24:03;;;;;;;15.60;10.83;;;11.00;99.90;;;;;;4847557;29;20220;-86
2022/11/01 02:26:50;;;;;;;14.10;10.50;;;11.00;99.90;;;;;;4835450;29;20196;-86
2022/11/01 02:29:35;;;;;;;16.83;11.70;;;11.00;99.90;;;;;;4862700;29;20214;-86
2022/11/01 02:32:41;;;;;;;14.67;10.93;;;11.00;99.90;;;;;;4847237;29;20241;-86
2022/11/01 02:35:36;;;;;;;17.67;11.13;;;11.10;99.90;;;;;;4862673;29;20188;-86
2022/11/01 02:38:06;;;;;;;12.93;9.87;;;11.10;99.90;;;;;;4839341;29;20207;-86
2022/11/01 02:40:35;;;;;;;15.67;10.97;;;11.00;99.90;;;;;;4862440;29;20197;-86
2022/11/01 02:43:08;;;;;;;15.67;11.00;;;11.00;99.90;;;;;;4847122;29;20213;-86
2022/11/01 02:45:39;;;;;;;14.83;11.17;;;11.00;99.90;;;;;;4844081;29;20205;-86
2022/11/01 02:48:06;;;;;;;15.87;10.67;;;11.00;99.90;;;;;;4844006;29;20273;-86
2022/11/01 02:50:45;;;;;;;16.83;10.10;;;11.00;99.90;;;;;;4843938;29;20284;-86
2022/11/01 02:53:11;;;;;;;12.70;10.43;;;11.10;99.90;;;;;;4843563;29;20228;-86
2022/11/01 02:55:37;;;;;;;15.57;10.20;;;11.10;99.90;;;;;;4862037;29;20192;-86
2022/11/01 02:58:13;;;;;;;14.13;9.77;;;11.10;99.90;;;;;;4846484;29;20179;-86
2022/11/01 03:00:41;;;;;;;14.87;10.17;;;11.20;99.90;;;;;;4877851;29;20185;-86
2022/11/01 03:03:23;;;;;;;13.57;10.03;;;11.10;99.90;;;;;;4861939;29;20201;-86
2022/11/01 03:05:52;;;;;;;13.57;10.47;;;11.10;99.90;;;;;;4846573;29;20269;-86
2022/11/01 03:08:23;;;;;;;15.23;9.83;;;11.10;99.90;;;;;;4846343;29;20191;-86
2022/11/01 03:10:58;;;;;;;14.90;10.07;;;11.00;99.90;;;;;;4861770;29;20183;-86
2022/11/01 03:14:00;;;;;;;13.27;9.30;;;11.10;99.90;;;;;;4845577;29;20274;-85
2022/11/01 03:16:32;;;;;;;13.80;10.93;;;11.10;99.90;;;;;;4862009;29;20229;-86
2022/11/01 03:19:00;;;;;;;14.97;9.53;;;11.10;99.90;;;;;;4861765;29;20249;-86
2022/11/01 03:21:33;;;;;;;14.03;10.37;;;11.10;99.90;;;;;;4861601;29;20186;-86
2022/11/01 03:24:08;;;;;;;12.53;10.37;;;11.10;99.90;;;;;;4846222;29;20718;-86
2022/11/01 03:26:35;;;;;;;16.80;9.40;;;11.20;99.90;;;;;;4844083;29;20223;-86
2022/11/01 03:29:06;;;;;;;15.13;9.83;;;11.20;99.90;;;;;;4861324;29;20190;-86
2022/11/01 03:31:36;;;;;;;12.10;9.90;;;11.20;99.90;;;;;;4861558;29;20203;-86
2022/11/01 03:34:17;;;;;;;13.17;9.43;;;11.20;99.90;;;;;;4876703;29;20204;-86
2022/11/01 03:36:50;;;;;;;13.40;9.63;;;11.20;99.90;;;;;;4861156;29;20261;-86
2022/11/01 03:39:41;;;;;;;12.67;9.03;;;11.20;99.90;;;;;;4861256;29;20697;-86
2022/11/01 03:42:10;;;;;;;15.50;9.30;;;11.20;99.90;;;;;;4861267;29;20182;-86
2022/11/01 03:44:47;;;;;;;12.27;8.73;;;11.20;99.90;;;;;;4861543;29;20582;-87
2022/11/01 03:47:14;;;;;;;13.03;9.17;;;11.10;99.90;;;;;;4861048;29;20173;-86
2022/11/01 03:49:39;;;;;;;17.83;9.67;;;11.10;99.90;;;;;;4876775;29;20194;-86
2022/11/01 03:52:05;;;;;;;14.23;9.10;;;11.10;99.90;;;;;;4861503;29;20219;-86
2022/11/01 03:54:31;;;;;;;20.00;9.47;;;11.10;99.90;;;;;;4860967;29;20676;-86
2022/11/01 03:56:57;;;;;;;11.60;8.63;;;11.10;99.90;;;;;;4861074;29;20182;-86
2022/11/01 03:59:23;;;;;;;12.07;8.90;;;11.10;99.90;;;;;;4861446;29;20361;-86
2022/11/01 04:01:55;;;;;;;16.00;9.27;;;11.10;99.90;;;;;;4860891;29;20184;-86
2022/11/01 04:04:21;;;;;;;14.80;9.57;;;11.10;99.90;;;;;;4858690;29;20205;-86
2022/11/01 04:06:47;;;;;;;14.40;10.13;;;11.10;99.90;;;;;;4860133;29;20177;-86
2022/11/01 04:09:13;;;;;;;14.93;9.50;;;11.00;99.90;;;;;;4845507;29;20183;-86
2022/11/01 04:11:39;;;;;;;15.37;8.97;;;11.00;99.90;;;;;;4860577;29;20216;-86
2022/11/01 04:22:17;;;;;;;15.77;9.13;;;11.10;99.90;;;;;;4860756;29;20207;-86
2022/11/01 04:24:43;;;;;;;12.50;9.17;;;11.20;99.90;;;;;;4860864;29;20206;-86
2022/11/01 04:27:09;;;;;;;13.83;9.63;;;11.20;99.90;;;;;;4860363;29;20185;-86
2022/11/01 04:29:35;;;;;;;14.77;9.10;;;11.20;99.90;;;;;;4860872;29;20186;-86
2022/11/01 04:32:02;;;;;;;11.03;9.13;;;11.20;99.90;;;;;;4860510;29;20220;-86
2022/11/01 04:34:43;;;;;;;14.17;10.30;;;11.30;99.90;;;;;;4859801;29;20207;-86
2022/11/01 04:37:10;;;;;;;17.87;9.50;;;11.20;99.90;;;;;;4860251;29;20191;-86
2022/11/01 04:39:36;;;;;;;15.63;9.70;;;11.30;99.90;;;;;;4860298;29;20417;-86
2022/11/01 04:42:02;;;;;;;14.33;9.07;;;11.30;99.90;;;;;;4875701;29;20641;-86
2022/11/01 04:44:28;;;;;;;13.70;8.87;;;11.30;99.90;;;;;;4860014;29;20315;-86
2022/11/01 04:46:54;;;;;;;12.90;9.40;;;11.30;99.90;;;;;;4860363;29;20226;-86
2022/11/01 04:49:20;;;;;;;13.40;9.43;;;11.30;99.90;;;;;;4859979;29;20222;-86
2022/11/01 04:51:45;;;;;;;16.40;10.03;;;11.30;99.90;;;;;;4860315;29;20219;-87
2022/11/01 04:54:11;;;;;;;13.27;9.77;;;11.20;99.90;;;;;;4875494;29;20315;-86
2022/11/01 04:56:37;;;;;;;13.63;9.30;;;11.30;99.90;;;;;;4860573;29;20224;-86
2022/11/01 04:59:03;;;;;;;12.30;9.80;;;11.30;99.90;;;;;;4861194;29;20200;-86
2022/11/01 05:01:33;;;;;;;14.00;9.33;;;11.20;99.90;;;;;;4858856;29;20190;-86
2022/11/01 05:03:59;;;;;;;14.10;8.90;;;11.20;99.90;;;;;;4859719;29;20210;-86
2022/11/01 05:06:24;;;;;;;12.93;8.97;;;11.20;99.90;;;;;;4859829;29;20215;-86
2022/11/01 05:08:52;;;;;;;11.47;8.77;;;11.20;99.90;;;;;;4859666;29;20201;-86
2022/11/01 05:11:24;;;;;;;14.17;9.33;;;11.30;99.90;;;;;;4859806;29;20195;-86
2022/11/01 05:13:50;;;;;;;10.50;8.67;;;11.30;99.90;;;;;;4859539;29;20223;-86
2022/11/01 05:16:16;;;;;;;12.17;8.80;;;11.30;99.90;;;;;;4859777;29;20184;-86
2022/11/01 05:18:42;;;;;;;11.47;8.23;;;11.40;99.90;;;;;;4859662;29;20180;-86
2022/11/01 05:21:08;;;;;;;13.20;8.13;;;11.40;99.90;;;;;;4860031;29;20255;-86
2022/11/01 05:23:34;;;;;;;14.27;8.77;;;11.50;99.90;;;;;;4859459;29;20792;-86
2022/11/01 05:26:00;;;;;;;11.80;7.47;;;11.50;99.90;;;;;;4859698;29;20272;-86
2022/11/01 05:28:26;;;;;;;9.53;6.40;;;11.60;99.90;;;;;;4859623;29;20299;-86
2022/11/01 05:30:51;;;;;;;9.33;6.47;;;11.60;99.90;;;;;;4859653;29;20282;-86
2022/11/01 05:33:17;;;;;;;8.73;6.10;;;11.70;99.90;;;;;;4842653;29;20217;-86
2022/11/01 05:35:43;;;;;;;5.93;4.43;;;11.80;99.90;;;;;;4859313;29;20199;-86
2022/11/01 05:38:09;;;;;;;6.07;3.70;;;12.00;99.90;;;;;;4859157;29;20363;-86
2022/11/01 05:40:35;;;;;;;4.70;2.80;;;12.10;99.90;;;;;;4844108;29;20266;-86
2022/11/01 05:43:01;;;;;;;5.17;2.20;;;12.30;99.90;;;;;;4859269;29;20197;-86
2022/11/01 05:45:27;;;;;;;4.43;2.90;;;12.40;99.90;;;;;;4859430;29;20219;-86
2022/11/01 05:47:52;;;;;;;3.37;2.77;;;12.50;99.90;;;;;;4859080;29;20267;-86
2022/11/01 05:50:18;;;;;;;4.20;2.33;;;12.60;99.90;;;;;;4859136;29;20193;-86
2022/11/01 05:52:44;;;;;;;3.63;2.20;;;12.70;99.90;;;;;;4859403;29;20222;-86
2022/11/01 05:55:11;;;;;;;2.30;2.00;;;12.70;99.90;;;;;;4859153;29;20206;-86
2022/11/01 05:57:36;;;;;;;2.70;2.10;;;12.80;99.90;;;;;;4859040;29;20183;-86
2022/11/01 06:00:04;;;;;;;2.33;1.80;;;12.90;99.90;;;;;;4874610;29;20184;-85
2022/11/01 06:02:38;;;;;;;4.63;2.30;;;12.90;99.90;;;;;;4859193;29;20180;-86
2022/11/01 06:05:04;;;;;;;2.23;1.60;;;13.00;99.90;;;;;;4874683;29;20326;-86
2022/11/01 06:07:30;;;;;;;2.93;1.80;;;13.10;99.90;;;;;;4859013;29;20240;-86
2022/11/01 06:09:56;;;;;;;3.43;1.93;;;13.20;99.90;;;;;;4859109;29;20184;-86
2022/11/01 06:12:24;;;;;;;3.20;1.80;;;13.30;99.90;;;;;;4858982;29;20223;-86
2022/11/01 06:15:01;;;;;;;3.70;1.90;;;13.40;99.90;;;;;;4858564;29;20212;-86
2022/11/01 06:17:27;;;;;;;5.27;1.97;;;13.50;99.90;;;;;;4858840;29;20191;-86
2022/11/01 06:19:53;;;;;;;3.50;2.07;;;13.60;99.90;;;;;;4858961;29;20239;-86
2022/11/01 06:22:18;;;;;;;2.63;1.70;;;13.60;99.90;;;;;;4860293;29;20245;-86
2022/11/01 06:24:44;;;;;;;3.20;2.13;;;13.70;99.90;;;;;;4858710;29;20219;-86
2022/11/01 06:27:10;;;;;;;4.43;2.80;;;13.70;99.90;;;;;;4858920;29;20638;-86
2022/11/01 06:29:36;;;;;;;4.23;2.50;;;13.80;99.90;;;;;;4858951;29;20188;-87
2022/11/01 06:32:03;;;;;;;3.57;2.20;;;13.80;99.90;;;;;;4858890;29;20213;-86
2022/11/01 06:34:30;;;;;;;3.80;1.87;;;13.70;99.90;;;;;;4858674;29;20209;-86
2022/11/01 06:36:56;;;;;;;8.13;1.80;;;13.70;99.90;;;;;;4859011;29;20205;-86
2022/11/01 06:39:22;;;;;;;2.93;2.00;;;13.70;99.90;;;;;;4858809;29;20197;-86
2022/11/01 06:41:47;;;;;;;3.20;2.27;;;13.70;99.90;;;;;;4859024;29;20184;-86
2022/11/01 06:44:13;;;;;;;3.27;1.40;;;13.70;99.90;;;;;;4858617;29;20205;-87
2022/11/01 06:46:39;;;;;;;1.50;1.23;;;13.70;99.90;;;;;;4858823;29;20215;-86
2022/11/01 06:49:05;;;;;;;2.37;1.50;;;13.70;99.90;;;;;;4858682;29;20184;-86
2022/11/01 06:51:31;;;;;;;2.20;1.27;;;13.80;99.90;;;;;;4858833;29;20196;-86
2022/11/01 06:53:56;;;;;;;4.10;1.10;;;13.80;99.90;;;;;;4858808;29;20224;-86
2022/11/01 06:56:22;;;;;;;3.33;1.20;;;13.80;99.90;;;;;;4858684;29;20285;-86
2022/11/01 06:58:49;;;;;;;3.50;1.10;;;13.80;99.90;;;;;;4859997;29;20200;-86
2022/11/01 07:01:20;;;;;;;1.83;1.00;;;13.80;99.90;;;;;;4860541;29;20192;-87
2022/11/01 07:03:50;;;;;;;1.27;1.17;;;13.80;99.90;;;;;;4861728;29;20697;-87
2022/11/01 07:06:17;;;;;;;1.00;0.90;;;13.80;99.90;;;;;;4844403;29;20201;-87
2022/11/01 07:08:43;;;;;;;1.03;0.90;;;13.80;99.90;;;;;;4843403;29;20655;-87
2022/11/01 07:11:09;;;;;;;2.03;1.10;;;13.80;99.90;;;;;;4843343;29;20276;-87
2022/11/01 07:13:36;;;;;;;1.57;1.03;;;13.80;99.90;;;;;;4858501;29;20250;-86
2022/11/01 07:16:10;;;;;;;2.17;1.13;;;13.90;99.90;;;;;;4843088;29;20181;-86
2022/11/01 07:18:35;;;;;;;1.40;0.80;;;13.90;99.90;;;;;;4843079;29;20178;-86
2022/11/01 07:21:03;;;;;;;1.30;1.10;;;13.90;99.90;;;;;;4843157;29;20185;-86
2022/11/01 07:23:29;;;;;;;1.13;1.03;;;13.90;99.90;;;;;;4861536;29;20240;-86
2022/11/01 07:25:56;;;;;;;1.63;0.90;;;13.90;99.90;;;;;;4846483;29;20184;-87
2022/11/01 07:28:22;;;;;;;3.07;1.20;;;13.90;99.90;;;;;;4846000;29;20188;-86
2022/11/01 07:30:54;;;;;;;1.93;1.17;;;13.90;99.90;;;;;;4845891;29;20192;-86
2022/11/01 07:33:20;;;;;;;3.73;1.30;;;13.90;99.90;;;;;;4846076;29;20220;-87
2022/11/01 07:35:47;;;;;;;2.00;1.00;;;13.90;99.90;;;;;;4846111;29;20193;-87
2022/11/01 07:38:13;;;;;;;1.77;1.20;;;13.90;99.90;;;;;;4860868;29;20195;-87
2022/11/01 07:40:39;;;;;;;1.13;1.03;;;13.90;99.90;;;;;;4860210;29;20255;-86
2022/11/01 07:43:05;;;;;;;1.73;1.00;;;13.90;99.90;;;;;;4845885;29;20209;-87
2022/11/01 07:45:33;;;;;;;1.40;1.10;;;14.00;99.90;;;;;;4860983;29;20245;-87
2022/11/01 07:48:09;;;;;;;1.57;1.20;;;14.00;99.90;;;;;;4860988;29;20221;-87
2022/11/01 07:50:36;;;;;;;1.90;1.17;;;14.00;99.90;;;;;;4892123;29;20199;-87
2022/11/01 07:53:07;;;;;;;2.47;1.40;;;14.00;99.90;;;;;;4860898;29;20220;-87
2022/11/01 07:55:34;;;;;;;5.60;1.67;;;14.00;99.90;;;;;;4861129;29;20181;-86
2022/11/01 07:58:01;;;;;;;1.60;1.20;;;14.00;99.90;;;;;;4860751;29;20248;-86
2022/11/01 08:00:28;;;;;;;1.53;1.20;;;14.00;99.90;;;;;;4861585;29;20204;-86
2022/11/01 08:03:11;;;;;;;1.90;1.70;;;14.10;99.90;;;;;;4861118;29;20200;-86
2022/11/01 08:05:37;;;;;;;2.53;1.40;;;14.10;99.90;;;;;;4861366;29;20177;-86
2022/11/01 08:08:04;;;;;;;2.97;1.70;;;14.10;99.90;;;;;;4861506;29;20256;-87
2022/11/01 08:10:31;;;;;;;1.97;1.57;;;14.20;99.90;;;;;;4860657;29;20184;-87
2022/11/01 08:13:00;;;;;;;3.57;1.90;;;14.20;99.90;;;;;;4860740;29;20220;-86
2022/11/01 08:15:26;;;;;;;4.17;1.80;;;14.20;99.90;;;;;;4861935;29;20181;-86
2022/11/01 08:17:55;;;;;;;2.23;2.03;;;14.30;99.90;;;;;;4860496;29;20211;-87
2022/11/01 08:20:21;;;;;;;3.10;2.37;;;14.30;99.90;;;;;;4875809;29;20220;-87
2022/11/01 08:22:52;;;;;;;2.47;2.17;;;14.30;99.90;;;;;;4860079;29;20217;-86
2022/11/01 08:25:18;;;;;;;3.77;3.20;;;14.40;99.90;;;;;;4860737;29;20196;-86
2022/11/01 08:27:44;;;;;;;5.13;4.60;;;14.40;99.90;;;;;;4876088;29;20192;-86
2022/11/01 08:30:16;;;;;;;6.63;5.10;;;14.40;99.90;;;;;;4861533;29;20187;-86
2022/11/01 08:32:45;;;;;;;4.37;3.97;;;14.50;99.90;;;;;;4882226;29;20215;-86
2022/11/01 08:35:12;;;;;;;5.30;3.90;;;14.50;99.90;;;;;;4860868;29;20185;-86
2022/11/01 08:37:50;;;;;;;3.60;2.60;;;14.50;99.90;;;;;;4860313;29;20316;-86
2022/11/01 08:40:16;;;;;;;2.13;1.83;;;14.60;99.90;;;;;;4860588;29;20287;-87
2022/11/01 08:42:42;;;;;;;2.77;1.70;;;14.60;99.90;;;;;;4860414;29;20196;-86
2022/11/01 08:45:08;;;;;;;1.70;1.60;;;14.60;99.90;;;;;;4860296;29;20184;-86
2022/11/01 08:47:34;;;;;;;1.80;1.60;;;14.70;99.90;;;;;;4860258;29;20245;-87
2022/11/01 08:50:00;;;;;;;2.97;2.10;;;14.70;99.90;;;;;;4860175;29;20184;-80
2022/11/01 08:52:29;;;;;;;3.50;2.50;;;14.70;99.90;;;;;;4861924;29;20196;-86
2022/11/01 08:54:55;;;;;;;3.67;3.00;;;14.70;99.90;;;;;;4845788;29;20188;-86
2022/11/01 08:57:21;;;;;;;2.40;2.20;;;14.80;99.90;;;;;;4859918;29;20200;-86
2022/11/01 08:59:47;;;;;;;1.63;1.53;;;14.80;99.90;;;;;;4860162;29;20192;-83
2022/11/01 09:02:13;;;;;;;1.80;1.60;;;14.80;99.90;;;;;;4845097;29;20205;-86
2022/11/01 09:04:39;;;;;;;1.90;1.80;;;14.80;99.90;;;;;;4859900;29;20204;-86
2022/11/01 09:07:10;;;;;;;2.27;1.73;;;14.80;99.90;;;;;;4859120;29;20180;-86
2022/11/01 09:09:36;;;;;;;2.03;1.83;;;14.90;99.90;;;;;;4859980;29;20220;-87
2022/11/01 09:12:05;;;;;;;1.50;1.10;;;14.90;99.90;;;;;;4859318;29;20212;-87
2022/11/01 09:14:31;;;;;;;1.20;1.10;;;14.90;99.90;;;;;;4859761;29;20193;-86
2022/11/01 09:16:57;;;;;;;0.70;0.70;;;15.00;99.90;;;;;;4844200;29;20252;-86
2022/11/01 09:19:23;;;;;;;3.17;1.80;;;15.10;99.90;;;;;;4844532;29;20192;-87
2022/11/01 09:21:49;;;;;;;1.80;1.10;;;15.10;99.90;;;;;;4844333;29;20185;-87
2022/11/01 09:24:16;;;;;;;2.27;1.10;;;15.20;99.90;;;;;;4859220;29;20212;-86
2022/11/01 09:26:43;;;;;;;1.43;0.90;;;15.40;99.90;;;;;;4859563;29;20181;-86
2022/11/01 09:29:10;;;;;;;1.30;1.00;;;15.50;99.90;;;;;;4860160;29;20219;-86
2022/11/01 09:31:50;;;;;;;1.93;1.03;;;15.70;99.90;;;;;;4859774;29;20187;-86
2022/11/01 09:34:16;;;;;;;1.57;1.00;;;15.80;99.90;;;;;;4859423;29;20204;-87
2022/11/01 09:36:42;;;;;;;1.37;1.27;;;16.10;99.90;;;;;;4859078;29;20185;-86
2022/11/01 09:39:09;;;;;;;0.93;0.80;;;16.20;99.90;;;;;;4843925;29;20201;-87
2022/11/01 09:41:44;;;;;;;1.25;1.05;;;16.40;99.90;;;;;;4859306;29;20180;-86
2022/11/01 09:44:18;;;;;;;1.50;1.40;;;16.50;99.90;;;;;;4858924;29;20205;-86
2022/11/01 09:47:17;;;;;;;1.97;1.73;;;16.70;99.90;;;;;;4858663;29;20169;-86
2022/11/01 09:49:46;;;;;;;1.02;1.00;;;16.80;99.90;;;;;;4859142;29;20189;-86
2022/11/01 09:52:20;;;;;;;0.70;0.70;;;16.90;99.90;;;;;;4859269;29;20201;-86
2022/11/01 09:54:47;;;;;;;1.17;0.90;;;17.00;99.90;;;;;;4859236;29;20203;-87
2022/11/01 09:57:55;;;;;;;1.17;0.80;;;17.10;99.90;;;;;;4844168;29;20240;-87
2022/11/01 10:00:21;;;;;;;0.95;0.90;;;17.20;99.90;;;;;;4809682;29;20178;-76
2022/11/01 10:03:13;;;;;;;0.95;0.88;;;17.40;99.90;;;;;;4857024;29;20218;-77
2022/11/01 10:06:17;;;;;;;1.08;0.63;;;17.50;99.90;;;;;;4859093;29;20260;-77
2022/11/01 10:08:57;;;;;;;2.60;0.88;;;17.60;99.90;;;;;;4870848;29;20234;-76
2022/11/01 10:12:05;;;;;;;1.42;0.80;;;17.70;99.90;;;;;;4859215;29;20207;-77
2022/11/01 10:14:58;;;;;;;2.95;0.80;;;17.80;99.90;;;;;;4850145;29;20268;-77
2022/11/01 10:18:29;;;;;;;1.13;0.70;;;17.80;99.90;;;;;;4859472;29;20184;-77
2022/11/01 10:21:20;;;;;;;0.63;0.63;;;17.80;99.90;;;;;;4817071;29;20193;-77
2022/11/01 10:23:51;;;;;;;1.02;0.88;;;17.70;99.90;;;;;;4838398;29;20277;-77
2022/11/01 10:26:29;;;;;;;2.00;0.80;;;17.60;99.90;;;;;;4825898;29;20229;-81
2022/11/01 10:29:05;;;;;;;1.77;0.73;;;17.60;99.90;;;;;;4840579;29;20187;-76
2022/11/01 10:31:38;;;;;;;1.48;1.00;;;17.60;99.90;;;;;;4840769;29;20234;-76
2022/11/01 10:34:28;;;;;;;4.68;1.30;;;17.60;99.90;;;;;;4831629;29;20213;-76
2022/11/01 10:37:15;;;;;;;2.13;1.00;;;17.50;99.90;;;;;;4859458;29;20176;-76
2022/11/01 10:40:10;;;;;;;0.95;0.80;;;17.50;99.90;;;;;;4845763;29;20189;-76
2022/11/01 10:42:38;;;;;;;2.08;1.08;;;17.50;99.90;;;;;;4857840;29;20189;-76
2022/11/01 10:45:26;;;;;;;4.18;1.30;;;17.50;99.90;;;;;;4846529;29;20200;-76
2022/11/01 10:48:04;;;;;;;3.30;1.10;;;17.50;99.90;;;;;;4861340;29;20185;-76
2022/11/01 10:50:30;;;;;;;1.52;1.10;;;17.40;99.90;;;;;;4862430;29;20196;-76
2022/11/01 10:53:01;;;;;;;2.15;0.95;;;17.40;99.90;;;;;;4861766;29;20247;-76
2022/11/01 10:55:37;;;;;;;2.22;1.00;;;17.50;99.90;;;;;;4877565;29;20181;-76
2022/11/01 10:58:13;;;;;;;2.25;1.05;;;17.40;99.90;;;;;;4862334;29;20185;-76
2022/11/01 11:00:41;;;;;;;2.17;0.85;;;17.40;99.90;;;;;;4862228;29;20235;-87
2022/11/01 11:03:26;;;;;;;1.35;1.00;;;17.40;99.90;;;;;;4862179;29;20295;-87
2022/11/01 11:05:53;;;;;;;2.03;1.02;;;17.50;99.90;;;;;;4860826;29;20268;-87
2022/11/01 11:08:22;;;;;;;0.90;0.90;;;17.50;99.90;;;;;;4846372;29;20272;-87
2022/11/01 11:11:09;;;;;;;2.42;0.98;;;17.50;99.90;;;;;;4844155;29;20188;-87
2022/11/01 11:13:49;;;;;;;2.42;0.90;;;17.60;99.90;;;;;;4846284;29;20221;-87
2022/11/01 11:16:38;;;;;;;2.17;1.10;;;17.60;99.90;;;;;;4874995;29;20196;-87
2022/11/01 11:19:08;;;;;;;3.03;1.20;;;17.70;99.90;;;;;;4877273;29;20256;-87
2022/11/01 11:21:35;;;;;;;2.92;1.40;;;17.80;99.90;;;;;;4856951;29;20181;-87
2022/11/01 11:24:02;;;;;;;2.17;1.10;;;17.80;99.90;;;;;;4846670;29;20205;-88
2022/11/01 11:26:37;;;;;;;1.88;1.05;;;17.80;99.90;;;;;;4877237;29;20184;-88
2022/11/01 11:29:04;;;;;;;1.50;0.70;;;17.80;99.90;;;;;;4861777;29;20199;-88
2022/11/01 11:31:33;;;;;;;2.70;1.10;;;17.80;99.90;;;;;;4861529;29;20195;-88
2022/11/01 11:34:18;;;;;;;2.55;1.23;;;17.80;99.90;;;;;;4861434;29;21010;-88
2022/11/01 11:36:52;;;;;;;1.20;0.73;;;17.80;99.90;;;;;;4859357;29;20232;-88
2022/11/01 11:40:06;;;;;;;2.13;0.90;;;17.80;99.90;;;;;;4861257;29;20318;-88
2022/11/01 11:42:32;;;;;;;1.77;0.98;;;17.80;99.90;;;;;;4829696;29;20233;-87
2022/11/01 11:45:23;;;;;;;2.17;0.90;;;17.70;99.90;;;;;;4846400;29;20189;-88
2022/11/01 11:47:51;;;;;;;4.18;1.00;;;17.70;99.90;;;;;;4846245;29;20229;-88
2022/11/01 11:50:20;;;;;;;5.10;1.25;;;17.80;99.90;;;;;;4861359;29;20192;-87
2022/11/01 11:53:25;;;;;;;1.38;0.90;;;17.80;99.90;;;;;;4854527;29;20201;-87
2022/11/01 11:55:57;;;;;;;1.88;0.93;;;17.70;99.90;;;;;;4793569;29;20182;-87
2022/11/01 11:58:53;;;;;;;2.85;1.20;;;17.70;99.90;;;;;;4804606;29;20186;-87
2022/11/01 12:01:23;;;;;;;2.50;1.08;;;17.70;99.90;;;;;;4828369;29;20237;-87
2022/11/01 12:04:07;;;;;;;3.38;1.00;;;17.80;99.90;;;;;;4861295;29;20261;-87
2022/11/01 12:06:44;;;;;;;4.60;1.55;;;17.70;99.90;;;;;;4827005;29;20189;-87
2022/11/01 12:09:31;;;;;;;2.00;1.23;;;17.70;99.90;;;;;;4827291;29;20185;-87
2022/11/01 12:12:15;;;;;;;4.25;1.08;;;17.80;99.90;;;;;;4842270;29;20197;-87
2022/11/01 12:14:41;;;;;;;1.70;1.15;;;17.80;99.90;;;;;;4842620;29;20669;-87
2022/11/01 12:17:35;;;;;;;1.95;1.00;;;17.90;99.90;;;;;;4860934;29;20185;-87
2022/11/01 12:20:15;;;;;;;1.45;1.08;;;17.90;99.90;;;;;;4856098;29;20192;-87
2022/11/01 12:22:50;;;;;;;2.50;1.25;;;18.00;99.90;;;;;;4860554;29;20177;-87
2022/11/01 12:25:36;;;;;;;3.70;1.20;;;18.10;99.90;;;;;;4860285;29;20176;-87
2022/11/01 12:28:27;;;;;;;2.08;1.00;;;18.20;99.90;;;;;;4844781;29;20181;-87
2022/11/01 12:30:59;;;;;;;2.47;1.20;;;18.30;99.90;;;;;;4842158;29;20254;-87
2022/11/01 12:33:36;;;;;;;2.45;0.88;;;18.50;99.90;;;;;;4856153;29;20216;-87
2022/11/01 12:36:02;;;;;;;3.70;1.08;;;18.50;99.90;;;;;;4845140;29;20176;-87
2022/11/01 12:38:32;;;;;;;3.15;1.15;;;18.60;99.90;;;;;;4845239;29;20205;-87
2022/11/01 12:41:08;;;;;;;1.50;0.95;;;18.70;99.90;;;;;;4845700;29;20184;-87
2022/11/01 12:43:41;;;;;;;4.15;1.02;;;18.70;99.90;;;;;;4861592;29;20192;-93
2022/11/01 12:46:30;;;;;;;4.45;1.20;;;18.60;99.90;;;;;;4856229;29;20297;-87
2022/11/01 12:49:04;;;;;;;2.13;1.10;;;18.60;99.90;;;;;;4860222;29;20245;-87
2022/11/01 12:51:43;;;;;;;3.17;1.38;;;18.60;99.90;;;;;;4845166;29;20172;-85
2022/11/01 12:54:38;;;;;;;3.25;1.08;;;18.80;99.90;;;;;;4844331;29;20255;-85
2022/11/01 12:57:13;;;;;;;2.40;1.30;;;18.90;99.90;;;;;;4871295;29;20184;-85
2022/11/01 12:59:40;;;;;;;3.45;1.30;;;19.10;99.90;;;;;;4849312;29;20203;-85
2022/11/01 13:02:33;;;;;;;3.08;1.20;;;19.20;99.90;;;;;;4854679;29;20267;-85
2022/11/01 13:05:23;;;;;;;3.50;1.30;;;19.40;99.90;;;;;;4840502;29;20210;-91
2022/11/01 13:08:12;;;;;;;1.88;1.00;;;19.40;99.90;;;;;;4854660;29;20190;-86
2022/11/01 13:10:45;;;;;;;2.25;1.10;;;19.30;99.90;;;;;;4847900;29;20181;-85
2022/11/01 13:13:38;;;;;;;2.95;1.23;;;19.20;99.90;;;;;;4843091;29;20213;-86